Time;durP1;ratioP1;P1;durP2;ratioP2;P2;SDS_P1;SDS_P2;PMS_P1;PMS_P2;Temp;Humidity;BMP_temperature;BMP_pressure;BME280_temperature;BME280_humidity;BME280_pressure;Samples;Min_cycle;Max_cycle;Signal;HPM_P1;HPM_P2
2021/01/28 00:00:33;;;;;;;23.33;14.82;;;2.80;99.90;;;;;;5089454;28;20024;-58
2021/01/28 00:03:00;;;;;;;28.10;15.25;;;2.90;99.90;;;;;;5090619;28;20025;-58
2021/01/28 00:05:28;;;;;;;27.20;14.68;;;2.90;99.90;;;;;;5087861;28;20047;-56
2021/01/28 00:07:53;;;;;;;26.63;14.85;;;3.00;99.90;;;;;;5079536;28;20027;-56
2021/01/28 00:10:20;;;;;;;25.23;14.23;;;3.00;99.90;;;;;;5090164;28;20024;-59
2021/01/28 00:12:46;;;;;;;27.67;14.48;;;3.00;99.90;;;;;;5091051;28;20133;-58
2021/01/28 00:15:15;;;;;;;23.90;13.90;;;3.00;99.90;;;;;;5090592;28;20028;-56
2021/01/28 00:17:41;;;;;;;29.80;14.35;;;3.00;99.90;;;;;;5089035;28;20206;-59
2021/01/28 00:20:17;;;;;;;27.35;14.73;;;3.10;99.90;;;;;;5089521;28;20555;-57
2021/01/28 00:22:44;;;;;;;27.75;15.02;;;3.10;99.90;;;;;;5087217;28;20090;-59
2021/01/28 00:25:13;;;;;;;26.27;13.80;;;3.10;99.90;;;;;;5073697;28;20039;-59
2021/01/28 00:27:38;;;;;;;31.60;16.48;;;3.20;99.90;;;;;;5087967;28;20099;-57
2021/01/28 00:30:07;;;;;;;26.23;15.52;;;3.20;99.90;;;;;;5090373;28;20526;-59
2021/01/28 00:32:33;;;;;;;26.30;14.65;;;3.20;99.90;;;;;;5090061;28;20099;-59
2021/01/28 00:34:58;;;;;;;24.75;13.85;;;3.20;99.90;;;;;;5087342;28;20028;-57
2021/01/28 00:37:24;;;;;;;28.27;14.43;;;3.20;99.90;;;;;;5083241;28;20027;-59
2021/01/28 00:39:50;;;;;;;24.77;14.43;;;3.30;99.90;;;;;;5071228;28;20024;-57
2021/01/28 00:42:16;;;;;;;30.95;14.05;;;3.30;99.90;;;;;;5066469;28;20071;-59
2021/01/28 00:44:42;;;;;;;30.55;15.68;;;3.30;99.90;;;;;;5072046;28;20024;-59
2021/01/28 00:47:07;;;;;;;24.73;13.88;;;3.40;99.90;;;;;;5071479;28;21132;-57
2021/01/28 00:49:33;;;;;;;28.25;14.25;;;3.50;99.90;;;;;;5071638;28;20038;-59
2021/01/28 00:51:58;;;;;;;28.00;14.13;;;3.50;99.90;;;;;;5072986;28;20024;-59
2021/01/28 00:54:24;;;;;;;29.88;14.73;;;3.50;99.90;;;;;;5071241;28;20399;-58
2021/01/28 00:56:50;;;;;;;31.65;14.38;;;3.50;99.90;;;;;;5072740;28;20035;-59
2021/01/28 00:59:15;;;;;;;27.90;15.73;;;3.60;99.90;;;;;;5070138;28;20248;-58
2021/01/28 01:01:41;;;;;;;26.15;15.52;;;3.60;99.90;;;;;;5069884;28;20024;-59
2021/01/28 01:04:06;;;;;;;30.08;14.90;;;3.60;99.90;;;;;;5072485;28;20032;-58
2021/01/28 01:06:32;;;;;;;30.88;16.15;;;3.60;99.90;;;;;;5069847;28;20475;-60
2021/01/28 01:08:58;;;;;;;28.23;15.23;;;3.60;99.90;;;;;;5072028;28;20051;-59
2021/01/28 01:11:25;;;;;;;33.90;15.25;;;3.60;99.90;;;;;;5070972;28;20479;-57
2021/01/28 01:13:50;;;;;;;29.25;14.15;;;3.60;99.90;;;;;;5068728;28;20060;-58
2021/01/28 01:16:18;;;;;;;29.63;14.10;;;3.50;99.90;;;;;;5070543;28;20471;-58
2021/01/28 01:18:43;;;;;;;24.85;12.93;;;3.50;99.90;;;;;;5070839;28;20027;-58
2021/01/28 01:21:09;;;;;;;18.05;10.70;;;3.40;99.90;;;;;;5072581;28;20016;-58
2021/01/28 01:23:34;;;;;;;16.40;10.18;;;3.40;99.90;;;;;;5070051;28;20056;-59
2021/01/28 01:26:00;;;;;;;19.30;11.40;;;3.40;99.90;;;;;;5076729;28;20485;-57
2021/01/28 01:28:28;;;;;;;20.38;11.57;;;3.30;99.90;;;;;;5086134;28;20492;-57
2021/01/28 01:30:54;;;;;;;22.05;11.18;;;3.30;99.90;;;;;;5081573;28;20032;-59
2021/01/28 01:33:19;;;;;;;20.60;12.05;;;3.20;99.90;;;;;;5085508;28;20027;-58
2021/01/28 01:35:45;;;;;;;21.42;10.73;;;3.20;99.90;;;;;;5066221;28;20036;-58
2021/01/28 01:38:11;;;;;;;21.45;11.00;;;3.10;99.90;;;;;;5066886;28;20418;-58
2021/01/28 01:40:43;;;;;;;19.42;11.45;;;3.10;99.90;;;;;;5059582;28;20032;-59
2021/01/28 01:43:11;;;;;;;17.38;10.40;;;3.10;99.90;;;;;;5067860;28;20032;-58
2021/01/28 01:45:54;;;;;;;20.20;11.20;;;3.10;99.90;;;;;;5047008;28;20048;-59
2021/01/28 01:48:26;;;;;;;21.60;11.93;;;3.00;99.90;;;;;;5057013;28;20535;-55
2021/01/28 01:51:05;;;;;;;23.58;11.65;;;3.00;99.90;;;;;;5060722;28;20032;-58
2021/01/28 01:53:35;;;;;;;24.85;12.88;;;2.90;99.90;;;;;;5059078;28;20126;-59
2021/01/28 01:56:07;;;;;;;17.27;10.60;;;2.90;99.90;;;;;;5050867;28;20021;-58
2021/01/28 01:58:57;;;;;;;18.00;11.38;;;2.80;99.90;;;;;;5057006;28;20047;-59
2021/01/28 02:01:27;;;;;;;22.00;11.85;;;2.80;99.90;;;;;;5047408;28;20486;-58
2021/01/28 02:03:53;;;;;;;20.92;10.90;;;2.80;99.90;;;;;;5054955;28;20024;-58
2021/01/28 02:06:52;;;;;;;22.30;11.35;;;2.80;99.90;;;;;;5052930;28;20103;-59
2021/01/28 02:09:18;;;;;;;22.08;11.02;;;2.80;99.90;;;;;;5062511;28;20047;-58
2021/01/28 02:11:46;;;;;;;22.73;12.00;;;2.80;99.90;;;;;;5052093;28;20029;-57
2021/01/28 02:14:15;;;;;;;21.52;10.75;;;2.80;99.90;;;;;;5060273;28;20024;-58
2021/01/28 02:16:52;;;;;;;19.25;10.95;;;2.70;99.90;;;;;;5057886;28;20107;-58
2021/01/28 02:19:33;;;;;;;19.90;10.80;;;2.70;99.90;;;;;;5058322;28;20534;-57
2021/01/28 02:22:01;;;;;;;15.05;9.50;;;2.60;99.90;;;;;;5066021;28;20027;-58
2021/01/28 02:24:41;;;;;;;20.00;10.60;;;2.50;99.90;;;;;;5063166;28;20506;-58
2021/01/28 02:27:09;;;;;;;15.15;8.80;;;2.40;99.90;;;;;;5067570;28;20413;-59
2021/01/28 02:29:36;;;;;;;15.88;10.05;;;2.40;99.90;;;;;;5067755;28;20123;-58
2021/01/28 02:32:01;;;;;;;18.23;9.77;;;2.30;99.90;;;;;;5068125;28;20625;-59
2021/01/28 02:34:27;;;;;;;17.20;10.07;;;2.30;99.90;;;;;;5065802;28;20017;-58
2021/01/28 02:36:54;;;;;;;18.65;9.70;;;2.20;99.90;;;;;;5067239;28;20021;-58
2021/01/28 02:39:24;;;;;;;19.65;10.05;;;2.20;99.90;;;;;;5066518;28;20563;-60
2021/01/28 02:42:26;;;;;;;17.10;9.30;;;2.10;99.90;;;;;;5067692;28;20070;-58
2021/01/28 02:44:52;;;;;;;14.77;8.45;;;2.10;99.90;;;;;;5064617;28;20044;-58
2021/01/28 02:47:18;;;;;;;16.42;9.00;;;2.10;99.90;;;;;;5070381;28;20099;-57
2021/01/28 02:49:43;;;;;;;17.58;9.05;;;2.00;99.90;;;;;;5062278;28;20118;-58
2021/01/28 02:52:09;;;;;;;14.38;8.77;;;2.10;99.90;;;;;;5056013;28;20024;-58
2021/01/28 02:54:41;;;;;;;14.63;8.35;;;2.00;99.90;;;;;;5061972;28;20027;-59
2021/01/28 02:57:08;;;;;;;15.70;8.43;;;2.00;99.90;;;;;;5067799;28;20016;-59
2021/01/28 02:59:33;;;;;;;15.38;9.32;;;2.00;99.90;;;;;;5071090;28;20023;-59
2021/01/28 03:02:05;;;;;;;13.18;8.48;;;2.00;99.90;;;;;;5071735;28;20482;-58
2021/01/28 03:04:31;;;;;;;14.10;7.05;;;1.90;99.90;;;;;;5070982;28;20070;-58
2021/01/28 03:06:57;;;;;;;14.98;7.95;;;1.90;99.90;;;;;;5065174;28;20020;-60
2021/01/28 03:09:23;;;;;;;13.80;7.75;;;1.90;99.90;;;;;;5067598;28;20032;-58
2021/01/28 03:11:48;;;;;;;13.45;7.65;;;1.90;99.90;;;;;;5066841;28;20063;-60
2021/01/28 03:14:15;;;;;;;13.52;7.85;;;1.90;99.90;;;;;;5083636;28;20064;-57
2021/01/28 03:16:40;;;;;;;13.63;7.53;;;1.90;99.90;;;;;;5079786;28;20040;-58
2021/01/28 03:19:06;;;;;;;13.13;7.35;;;1.90;99.90;;;;;;5073498;28;20442;-59
2021/01/28 03:21:31;;;;;;;13.02;7.32;;;1.90;99.90;;;;;;5071096;28;20024;-59
2021/01/28 03:23:57;;;;;;;14.98;7.45;;;1.90;99.90;;;;;;5082863;28;20445;-58
2021/01/28 03:26:22;;;;;;;11.13;7.00;;;1.90;99.90;;;;;;5076996;28;20032;-55
2021/01/28 03:28:48;;;;;;;13.80;6.65;;;1.90;99.90;;;;;;5076615;28;20023;-58
2021/01/28 03:31:14;;;;;;;13.23;7.18;;;1.90;99.90;;;;;;5074098;28;20027;-57
2021/01/28 03:33:40;;;;;;;11.43;7.07;;;1.90;99.90;;;;;;5071566;28;20549;-58
2021/01/28 03:36:06;;;;;;;14.00;7.13;;;1.90;99.90;;;;;;5081666;28;20398;-59
2021/01/28 03:38:31;;;;;;;14.07;6.63;;;1.90;99.90;;;;;;5080337;28;20035;-57
2021/01/28 03:40:57;;;;;;;11.60;6.88;;;1.90;99.90;;;;;;5065241;28;20016;-59
2021/01/28 03:43:23;;;;;;;11.80;7.05;;;1.90;99.90;;;;;;5069305;28;20085;-56
2021/01/28 03:45:49;;;;;;;10.00;6.28;;;1.90;99.90;;;;;;5071194;28;20519;-59
2021/01/28 03:48:14;;;;;;;10.50;6.53;;;1.90;99.90;;;;;;5072205;28;20106;-58
2021/01/28 03:50:40;;;;;;;13.13;7.80;;;1.90;99.90;;;;;;5070480;28;20158;-58
2021/01/28 03:53:06;;;;;;;10.82;6.68;;;1.90;99.90;;;;;;5071125;28;20142;-59
2021/01/28 03:55:32;;;;;;;9.52;5.93;;;1.90;99.90;;;;;;5071721;28;20032;-58
2021/01/28 03:57:58;;;;;;;9.57;6.07;;;1.80;99.90;;;;;;5074696;28;20020;-58
2021/01/28 04:00:30;;;;;;;9.15;5.30;;;1.80;99.90;;;;;;5074184;28;20028;-58
2021/01/28 04:02:55;;;;;;;10.07;5.88;;;1.80;99.90;;;;;;5079277;28;20428;-57
2021/01/28 04:05:21;;;;;;;7.60;4.60;;;1.80;99.90;;;;;;5073310;28;20077;-58
2021/01/28 04:07:48;;;;;;;9.20;5.15;;;1.70;99.90;;;;;;5069610;28;20031;-56
2021/01/28 04:10:21;;;;;;;10.07;5.38;;;1.70;99.90;;;;;;5072853;28;20075;-59
2021/01/28 04:12:46;;;;;;;10.30;5.82;;;1.70;99.90;;;;;;5077313;28;20027;-58
2021/01/28 04:15:14;;;;;;;10.02;5.78;;;1.70;99.90;;;;;;5074925;28;20383;-57
2021/01/28 04:17:39;;;;;;;12.70;5.78;;;1.60;99.90;;;;;;5072682;28;20063;-58
2021/01/28 04:20:07;;;;;;;8.70;5.88;;;1.60;99.90;;;;;;5076405;28;20560;-58
2021/01/28 04:22:33;;;;;;;7.55;5.13;;;1.60;99.90;;;;;;5076101;28;20752;-56
2021/01/28 04:24:59;;;;;;;8.68;5.38;;;1.60;99.90;;;;;;5075080;28;20021;-60
2021/01/28 04:27:25;;;;;;;9.25;5.68;;;1.60;99.90;;;;;;5077985;28;20078;-59
2021/01/28 04:29:50;;;;;;;8.85;5.40;;;1.60;99.90;;;;;;5075450;28;20038;-59
2021/01/28 04:32:16;;;;;;;7.72;5.10;;;1.60;99.90;;;;;;5073354;28;20033;-57
2021/01/28 04:34:42;;;;;;;8.93;5.72;;;1.60;99.90;;;;;;5072090;28;20032;-56
2021/01/28 04:37:07;;;;;;;9.23;5.10;;;1.60;99.90;;;;;;5078749;28;20032;-58
2021/01/28 04:39:33;;;;;;;8.45;5.32;;;1.50;99.90;;;;;;5076890;28;20021;-57
2021/01/28 04:41:58;;;;;;;7.43;5.32;;;1.50;99.90;;;;;;5074719;28;20023;-59
2021/01/28 04:44:26;;;;;;;7.85;5.22;;;1.50;99.90;;;;;;5075627;28;20499;-58
2021/01/28 04:46:56;;;;;;;7.53;5.22;;;1.40;99.90;;;;;;5087411;28;20171;-58
2021/01/28 04:49:24;;;;;;;9.90;5.20;;;1.30;99.90;;;;;;5081582;28;20020;-58
2021/01/28 04:51:59;;;;;;;6.35;4.50;;;1.30;99.90;;;;;;5073614;28;20025;-57
2021/01/28 04:54:35;;;;;;;9.55;4.88;;;1.20;99.90;;;;;;5082059;28;20044;-58
2021/01/28 04:57:10;;;;;;;;;;;1.20;99.90;;;;;;5076540;28;20012;-56
2021/01/28 04:59:42;;;;;;;6.38;4.72;;;1.20;99.90;;;;;;5081454;28;19904;-58
2021/01/28 05:02:14;;;;;;;8.45;4.85;;;1.10;99.90;;;;;;5078132;28;20546;-58
2021/01/28 05:04:52;;;;;;;6.80;4.55;;;1.00;99.90;;;;;;5075314;28;20021;-58
2021/01/28 05:07:36;;;;;;;7.03;4.63;;;1.00;99.90;;;;;;5063403;28;20031;-56
2021/01/28 05:10:28;;;;;;;6.90;4.80;;;0.90;99.90;;;;;;5071764;28;20025;-56
2021/01/28 05:13:01;;;;;;;6.25;4.65;;;0.80;99.90;;;;;;5074793;28;20050;-58
2021/01/28 05:15:34;;;;;;;8.90;4.90;;;0.80;99.90;;;;;;5071917;28;20556;-57
2021/01/28 05:18:02;;;;;;;6.18;4.88;;;0.70;99.90;;;;;;5071514;28;20020;-58
2021/01/28 05:20:29;;;;;;;8.85;5.45;;;0.70;99.90;;;;;;5073304;28;20027;-58
2021/01/28 05:23:10;;;;;;;8.38;5.60;;;0.60;99.90;;;;;;5077205;28;20020;-58
2021/01/28 05:25:41;;;;;;;9.02;4.95;;;0.60;99.90;;;;;;5069104;28;20032;-57
2021/01/28 05:28:26;;;;;;;6.93;4.88;;;0.60;99.90;;;;;;5069514;28;20021;-58
2021/01/28 05:30:52;;;;;;;7.60;5.30;;;0.60;99.90;;;;;;5072348;28;20021;-58
2021/01/28 05:33:37;;;;;;;7.85;5.20;;;0.60;99.90;;;;;;5069760;28;20035;-57
2021/01/28 05:36:24;;;;;;;8.23;5.10;;;0.60;99.90;;;;;;5078869;28;20178;-56
2021/01/28 05:38:51;;;;;;;;;;;0.60;99.90;;;;;;5059518;28;20551;-57
2021/01/28 05:41:29;;;;;;;8.50;4.43;;;0.60;99.90;;;;;;5059206;28;20371;-57
2021/01/28 05:43:55;;;;;;;10.90;5.55;;;0.60;99.90;;;;;;5067109;28;20033;-56
2021/01/28 05:46:23;;;;;;;7.47;5.18;;;0.50;99.90;;;;;;5082445;28;20020;-57
2021/01/28 05:49:08;;;;;;;7.97;5.80;;;0.50;99.90;;;;;;5075950;28;20489;-58
2021/01/28 05:51:42;;;;;;;8.40;5.15;;;0.50;99.90;;;;;;5065300;28;20135;-58
2021/01/28 05:54:14;;;;;;;9.38;6.13;;;0.50;99.90;;;;;;5073937;28;20047;-56
2021/01/28 05:56:57;;;;;;;7.43;5.07;;;0.50;99.90;;;;;;5060113;28;20067;-50
2021/01/28 05:59:42;;;;;;;6.43;4.57;;;0.50;99.90;;;;;;5058713;28;20021;-58
2021/01/28 06:02:16;;;;;;;7.93;5.15;;;0.50;99.90;;;;;;5064362;28;20032;-58
2021/01/28 06:05:08;;;;;;;8.82;5.38;;;0.50;99.90;;;;;;5070361;28;20430;-58
2021/01/28 06:07:53;;;;;;;7.70;5.35;;;0.50;99.90;;;;;;5064575;28;20025;-58
2021/01/28 06:10:58;;;;;;;8.75;5.55;;;0.40;99.90;;;;;;5079070;28;20062;-58
2021/01/28 06:13:38;;;;;;;8.50;4.97;;;0.40;99.90;;;;;;5074618;28;20453;-57
2021/01/28 06:16:07;;;;;;;7.38;5.40;;;0.40;99.90;;;;;;5055194;28;20029;-57
2021/01/28 06:19:04;;;;;;;9.52;6.22;;;0.40;99.90;;;;;;5055384;28;20090;-57
2021/01/28 06:21:51;;;;;;;8.82;5.25;;;0.40;99.90;;;;;;5056369;28;20495;-57
2021/01/28 06:24:54;;;;;;;6.78;4.55;;;0.30;99.90;;;;;;5060972;28;20024;-56
2021/01/28 06:27:44;;;;;;;9.23;5.65;;;0.30;99.90;;;;;;5060298;28;20028;-56
2021/01/28 06:30:32;;;;;;;8.98;5.53;;;0.20;99.90;;;;;;5063160;28;20478;-55
2021/01/28 06:33:05;;;;;;;7.03;4.78;;;0.20;99.90;;;;;;5055284;28;20036;-58
2021/01/28 06:35:54;;;;;;;8.00;5.72;;;0.10;99.90;;;;;;5055489;28;20017;-56
2021/01/28 06:38:35;;;;;;;9.63;5.65;;;0.10;99.90;;;;;;5054367;28;20044;-55
2021/01/28 06:41:06;;;;;;;8.18;5.95;;;0.10;99.90;;;;;;5058276;28;20502;-54
2021/01/28 06:43:47;;;;;;;7.45;5.68;;;0.10;99.90;;;;;;5056295;28;20549;-58
2021/01/28 06:46:23;;;;;;;9.35;5.38;;;0.00;99.90;;;;;;5052218;28;20077;-57
2021/01/28 06:48:51;;;;;;;7.40;5.63;;;0.00;99.90;;;;;;5050405;28;20029;-55
2021/01/28 06:51:31;;;;;;;10.63;5.57;;;-0.10;99.90;;;;;;5061860;28;20024;-53
2021/01/28 06:54:06;;;;;;;8.55;5.47;;;-0.10;99.90;;;;;;5052364;28;20507;-57
2021/01/28 06:56:41;;;;;;;9.25;6.00;;;-0.10;99.90;;;;;;5059828;28;20021;-55
2021/01/28 06:59:19;;;;;;;9.57;6.70;;;-0.10;99.90;;;;;;5061573;28;20028;-57
2021/01/28 07:01:56;;;;;;;8.00;6.00;;;-0.20;99.90;;;;;;5054908;28;20025;-56
2021/01/28 07:04:22;;;;;;;7.38;5.32;;;-0.20;99.90;;;;;;5053844;28;20025;-56
2021/01/28 07:07:06;;;;;;;8.00;5.70;;;-0.20;99.90;;;;;;5053662;28;20028;-57
2021/01/28 07:09:34;;;;;;;7.35;5.13;;;-0.20;99.90;;;;;;5051428;28;20029;-57
2021/01/28 07:12:06;;;;;;;9.55;5.80;;;-0.20;99.90;;;;;;5053115;28;20032;-57
2021/01/28 07:14:32;;;;;;;8.60;5.85;;;-0.30;99.90;;;;;;5050760;28;20025;-57
2021/01/28 07:17:20;;;;;;;7.93;5.72;;;-0.20;99.90;;;;;;5055000;28;20044;-57
2021/01/28 07:19:51;;;;;;;7.85;5.95;;;-0.20;99.90;;;;;;5051809;28;20032;-54
2021/01/28 07:22:30;;;;;;;9.20;6.47;;;-0.20;99.90;;;;;;5050419;28;20025;-55
2021/01/28 07:25:17;;;;;;;10.07;6.38;;;-0.20;99.90;;;;;;5051602;28;20104;-55
2021/01/28 07:27:56;;;;;;;9.98;6.72;;;-0.20;99.90;;;;;;5069393;28;20021;-55
2021/01/28 07:30:43;;;;;;;8.32;5.97;;;-0.30;99.90;;;;;;5070897;28;20124;-57
2021/01/28 07:33:24;;;;;;;8.18;6.05;;;-0.30;99.90;;;;;;5046877;28;20040;-57
2021/01/28 07:35:59;;;;;;;8.65;6.43;;;-0.20;99.90;;;;;;5070782;28;20089;-57
2021/01/28 07:38:27;;;;;;;9.50;5.90;;;-0.20;99.90;;;;;;5071104;28;20059;-55
2021/01/28 07:41:04;;;;;;;8.80;6.63;;;-0.30;99.90;;;;;;5069976;28;20016;-56
2021/01/28 07:43:42;;;;;;;7.50;5.45;;;-0.30;99.90;;;;;;5061408;28;20034;-52
2021/01/28 07:46:13;;;;;;;8.80;6.95;;;-0.20;99.90;;;;;;5066356;28;20025;-56
2021/01/28 07:48:39;;;;;;;9.00;6.97;;;-0.30;99.90;;;;;;5071439;28;20547;-54
2021/01/28 07:51:37;;;;;;;12.05;7.93;;;-0.30;99.90;;;;;;5070986;28;20104;-54
2021/01/28 07:54:04;;;;;;;11.15;6.90;;;-0.40;99.90;;;;;;5070807;28;20029;-56
2021/01/28 07:56:36;;;;;;;9.30;6.75;;;-0.30;99.90;;;;;;5070543;28;20013;-56
2021/01/28 07:59:39;;;;;;;10.07;7.13;;;-0.30;99.90;;;;;;5056926;28;20029;-56
2021/01/28 08:02:24;;;;;;;10.68;6.75;;;-0.40;99.90;;;;;;5049588;28;20494;-57
2021/01/28 08:05:05;;;;;;;12.82;8.20;;;-0.40;99.90;;;;;;5070855;28;20031;-57
2021/01/28 08:07:43;;;;;;;12.10;7.95;;;-0.40;99.90;;;;;;5069354;28;20032;-54
2021/01/28 08:10:25;;;;;;;11.70;8.00;;;-0.40;99.90;;;;;;5056799;28;20027;-55
2021/01/28 08:13:02;;;;;;;11.73;7.45;;;-0.40;99.90;;;;;;5070483;28;20031;-57
2021/01/28 08:15:41;;;;;;;10.52;7.78;;;-0.40;99.90;;;;;;5070213;28;20055;-55
2021/01/28 08:18:27;;;;;;;10.70;7.47;;;-0.40;99.90;;;;;;5058882;28;20036;-54
2021/01/28 08:21:11;;;;;;;12.30;7.88;;;-0.40;99.90;;;;;;5070397;28;20051;-53
2021/01/28 08:23:39;;;;;;;12.05;7.07;;;-0.40;99.90;;;;;;5069888;28;20024;-56
2021/01/28 08:26:24;;;;;;;10.38;6.85;;;-0.40;99.90;;;;;;5069939;28;20070;-56
2021/01/28 08:29:05;;;;;;;10.43;7.15;;;-0.40;99.90;;;;;;5070125;28;20605;-55
2021/01/28 08:31:41;;;;;;;10.07;6.57;;;-0.40;99.90;;;;;;5069804;28;20020;-57
2021/01/28 08:34:12;;;;;;;9.48;6.78;;;-0.40;99.90;;;;;;5070159;28;20031;-57
2021/01/28 08:36:54;;;;;;;10.35;7.47;;;-0.30;99.90;;;;;;5060676;28;20086;-56
2021/01/28 08:39:27;;;;;;;11.23;7.15;;;-0.30;99.90;;;;;;5069779;28;20032;-57
2021/01/28 08:41:59;;;;;;;10.35;7.05;;;-0.30;99.90;;;;;;5068343;28;20027;-55
2021/01/28 08:44:24;;;;;;;9.98;7.03;;;-0.30;99.90;;;;;;5070022;28;20142;-54
2021/01/28 08:47:13;;;;;;;10.15;7.25;;;-0.30;99.90;;;;;;5068343;28;20123;-56
2021/01/28 08:49:39;;;;;;;10.90;6.10;;;-0.30;99.90;;;;;;5069877;28;20028;-56
2021/01/28 08:52:12;;;;;;;10.32;6.90;;;-0.30;99.90;;;;;;5059937;28;20116;-56
2021/01/28 08:54:46;;;;;;;8.45;6.03;;;-0.20;99.90;;;;;;5068229;28;20819;-57
2021/01/28 08:57:17;;;;;;;8.93;6.32;;;-0.20;99.90;;;;;;5063980;28;20534;-55
2021/01/28 09:00:00;;;;;;;7.35;5.80;;;-0.20;99.90;;;;;;5066909;28;20063;-56
2021/01/28 09:02:43;;;;;;;9.07;6.95;;;-0.10;99.90;;;;;;5069825;28;20068;-57
2021/01/28 09:05:19;;;;;;;7.47;5.65;;;-0.20;99.90;;;;;;5061835;28;20115;-57
2021/01/28 09:07:55;;;;;;;7.78;4.97;;;-0.20;99.90;;;;;;5068256;28;20041;-55
2021/01/28 09:10:25;;;;;;;8.02;5.95;;;-0.10;99.90;;;;;;5071303;28;20048;-55
2021/01/28 09:12:51;;;;;;;7.00;5.22;;;-0.10;99.90;;;;;;5068596;28;20414;-57
2021/01/28 09:15:18;;;;;;;6.88;5.30;;;0.00;99.90;;;;;;5067422;28;20029;-56
2021/01/28 09:17:44;;;;;;;7.18;5.25;;;0.00;99.90;;;;;;5060976;28;20028;-57
2021/01/28 09:20:32;;;;;;;6.75;5.40;;;0.00;99.90;;;;;;5068183;28;20225;-54
2021/01/28 09:23:10;;;;;;;7.25;5.00;;;0.00;99.90;;;;;;5069395;28;20081;-55
2021/01/28 09:25:37;;;;;;;7.85;4.88;;;-0.10;99.90;;;;;;5070728;28;20031;-57
2021/01/28 09:28:04;;;;;;;6.45;5.15;;;-0.10;99.90;;;;;;5068967;28;20071;-56
2021/01/28 09:30:40;;;;;;;7.47;5.30;;;-0.10;99.90;;;;;;5067140;28;20033;-57
2021/01/28 09:33:31;;;;;;;8.90;5.70;;;-0.10;99.90;;;;;;5057916;28;20057;-57
2021/01/28 09:36:19;;;;;;;4.78;4.10;;;0.00;99.90;;;;;;5070863;28;20067;-57
2021/01/28 09:39:03;;;;;;;7.45;4.72;;;0.00;99.90;;;;;;5072969;28;20029;-57
2021/01/28 09:41:36;;;;;;;7.07;4.82;;;0.00;99.90;;;;;;5066600;28;20040;-58
2021/01/28 09:44:03;;;;;;;5.93;5.32;;;0.00;99.90;;;;;;5070042;28;20400;-57
2021/01/28 09:46:30;;;;;;;6.78;4.28;;;0.10;99.90;;;;;;5068647;28;20029;-57
2021/01/28 09:48:59;;;;;;;6.40;4.60;;;0.10;99.90;;;;;;5068310;28;20020;-57
2021/01/28 09:51:30;;;;;;;7.95;4.65;;;0.10;99.90;;;;;;5067864;28;20471;-57
2021/01/28 09:54:11;;;;;;;6.38;4.93;;;0.10;99.90;;;;;;5067940;28;20035;-57
2021/01/28 09:56:37;;;;;;;6.35;4.78;;;0.10;99.90;;;;;;5066765;28;20024;-57
2021/01/28 09:59:02;;;;;;;5.97;4.95;;;0.10;99.90;;;;;;5068606;28;20024;-55
2021/01/28 10:01:28;;;;;;;6.93;4.78;;;0.10;99.90;;;;;;5066456;28;20028;-57
2021/01/28 10:03:54;;;;;;;6.55;4.10;;;0.10;99.90;;;;;;5068294;28;20021;-56
2021/01/28 10:06:19;;;;;;;6.93;4.82;;;0.10;99.90;;;;;;5067774;28;20032;-58
2021/01/28 10:08:45;;;;;;;6.15;4.40;;;0.10;99.90;;;;;;5067789;28;20589;-59
2021/01/28 10:11:11;;;;;;;6.03;4.43;;;0.10;99.90;;;;;;5067937;28;20025;-56
2021/01/28 10:13:36;;;;;;;5.65;4.00;;;0.10;99.90;;;;;;5068180;28;20017;-58
2021/01/28 10:16:02;;;;;;;8.85;4.10;;;0.20;99.90;;;;;;5067820;28;20024;-57
2021/01/28 10:18:28;;;;;;;6.22;4.35;;;0.20;99.90;;;;;;5067013;28;20017;-57
2021/01/28 10:20:54;;;;;;;4.30;3.60;;;0.30;99.90;;;;;;5067869;28;20029;-55
2021/01/28 10:23:19;;;;;;;6.13;3.72;;;0.40;99.90;;;;;;5067624;28;20020;-59
2021/01/28 10:25:45;;;;;;;6.20;3.35;;;0.40;99.90;;;;;;5066908;28;20475;-58
2021/01/28 10:28:11;;;;;;;4.40;3.15;;;0.40;99.90;;;;;;5068385;28;20425;-57
2021/01/28 10:30:36;;;;;;;4.93;3.45;;;0.40;99.90;;;;;;5054344;28;20604;-57
2021/01/28 10:33:03;;;;;;;6.13;3.60;;;0.40;99.90;;;;;;5048540;28;20415;-57
2021/01/28 10:35:31;;;;;;;4.40;3.03;;;0.40;99.90;;;;;;5063132;28;20021;-57
2021/01/28 10:37:57;;;;;;;3.42;3.10;;;0.40;99.90;;;;;;5070910;28;20188;-57
2021/01/28 10:40:24;;;;;;;4.95;3.05;;;0.30;99.90;;;;;;5069483;28;20023;-57
2021/01/28 10:42:58;;;;;;;4.22;3.17;;;0.40;99.90;;;;;;5067205;28;20111;-56
2021/01/28 10:45:30;;;;;;;4.10;3.50;;;0.40;99.90;;;;;;5067921;28;20040;-56
2021/01/28 10:47:55;;;;;;;4.85;3.17;;;0.40;99.90;;;;;;5068041;28;20032;-58
2021/01/28 10:50:22;;;;;;;4.50;3.85;;;0.40;99.90;;;;;;5068211;28;20031;-58
2021/01/28 10:52:48;;;;;;;7.13;4.10;;;0.40;99.90;;;;;;5067286;28;20016;-55
2021/01/28 10:55:15;;;;;;;3.70;3.20;;;0.50;99.90;;;;;;5063349;28;20033;-58
2021/01/28 10:57:41;;;;;;;3.20;2.70;;;0.50;99.90;;;;;;5049830;28;20021;-56
2021/01/28 11:00:07;;;;;;;4.90;3.78;;;0.50;99.90;;;;;;5065955;28;20024;-57
2021/01/28 11:02:33;;;;;;;6.28;3.40;;;0.50;99.90;;;;;;5068285;28;20620;-57
2021/01/28 11:05:20;;;;;;;4.72;3.50;;;0.50;99.90;;;;;;5067413;28;20028;-58
2021/01/28 11:07:46;;;;;;;5.82;3.50;;;0.50;99.90;;;;;;5070049;28;20021;-58
2021/01/28 11:10:13;;;;;;;4.43;2.97;;;0.50;99.90;;;;;;5070323;28;20025;-57
2021/01/28 11:12:39;;;;;;;5.13;3.33;;;0.50;99.90;;;;;;5071452;28;20075;-57
2021/01/28 11:15:05;;;;;;;4.32;3.08;;;0.50;99.90;;;;;;5070501;28;20056;-58
2021/01/28 11:17:31;;;;;;;4.93;2.60;;;0.50;99.90;;;;;;5069776;28;20650;-59
2021/01/28 11:19:57;;;;;;;3.55;2.83;;;0.50;99.90;;;;;;5070917;28;20033;-57
2021/01/28 11:22:22;;;;;;;3.40;2.90;;;0.60;99.90;;;;;;5071009;28;20409;-57
2021/01/28 11:24:48;;;;;;;3.03;2.30;;;0.60;99.90;;;;;;5071138;28;20382;-60
2021/01/28 11:27:14;;;;;;;4.20;3.13;;;0.60;99.90;;;;;;5071577;28;20487;-58
2021/01/28 11:29:41;;;;;;;9.07;3.67;;;0.70;99.90;;;;;;5071584;28;20029;-57
2021/01/28 11:32:07;;;;;;;4.55;3.42;;;0.70;99.90;;;;;;5070817;28;20037;-57
2021/01/28 11:34:33;;;;;;;6.10;4.05;;;0.60;99.90;;;;;;5067377;28;20036;-56
2021/01/28 11:36:58;;;;;;;6.28;3.10;;;0.70;99.90;;;;;;5050992;28;20497;-59
2021/01/28 11:39:24;;;;;;;6.75;3.65;;;0.70;99.90;;;;;;5069248;28;20028;-57
2021/01/28 11:41:49;;;;;;;2.88;2.55;;;0.70;99.90;;;;;;5064674;28;20458;-58
2021/01/28 11:44:15;;;;;;;5.43;3.10;;;0.70;99.90;;;;;;5069318;28;20719;-58
2021/01/28 11:46:40;;;;;;;5.07;3.28;;;0.70;99.90;;;;;;5071129;28;20538;-58
2021/01/28 11:49:06;;;;;;;3.55;2.65;;;0.60;99.90;;;;;;5058351;28;20029;-59
2021/01/28 11:51:31;;;;;;;3.30;2.65;;;0.70;99.90;;;;;;5068389;28;20032;-57
2021/01/28 11:53:57;;;;;;;3.50;3.20;;;0.70;99.90;;;;;;5065855;28;20021;-59
2021/01/28 11:56:22;;;;;;;5.93;3.10;;;0.70;99.90;;;;;;5069502;28;20028;-58
2021/01/28 11:58:48;;;;;;;5.57;2.58;;;0.60;99.90;;;;;;5069313;28;20016;-58
2021/01/28 12:01:13;;;;;;;4.63;3.10;;;0.60;99.90;;;;;;5070502;28;20601;-57
2021/01/28 12:03:39;;;;;;;2.83;2.42;;;0.70;99.90;;;;;;5070666;28;20022;-58
2021/01/28 12:06:05;;;;;;;3.95;2.88;;;0.60;99.90;;;;;;5070258;28;20063;-56
2021/01/28 12:08:30;;;;;;;6.43;3.60;;;0.60;99.90;;;;;;5070631;28;20059;-58
2021/01/28 12:10:56;;;;;;;5.97;3.33;;;0.70;99.90;;;;;;5069331;28;20096;-57
2021/01/28 12:13:21;;;;;;;4.65;2.97;;;0.80;99.90;;;;;;5070668;28;20025;-58
2021/01/28 12:15:47;;;;;;;4.57;2.97;;;0.90;99.90;;;;;;5069452;28;20039;-58
2021/01/28 12:18:13;;;;;;;5.25;2.88;;;0.90;99.90;;;;;;5069146;28;20017;-59
2021/01/28 12:20:38;;;;;;;3.83;2.75;;;0.90;99.90;;;;;;5070143;28;20025;-58
2021/01/28 12:23:05;;;;;;;6.50;2.67;;;1.00;99.90;;;;;;5070081;28;20021;-57
2021/01/28 12:25:31;;;;;;;3.40;2.30;;;1.00;99.90;;;;;;5069018;28;20096;-55
2021/01/28 12:27:56;;;;;;;2.97;2.50;;;1.00;99.90;;;;;;5070452;28;20526;-58
2021/01/28 12:30:23;;;;;;;5.40;2.33;;;1.10;99.90;;;;;;5069721;28;20037;-57
2021/01/28 12:32:49;;;;;;;4.47;2.85;;;1.20;99.90;;;;;;5070391;28;20086;-58
2021/01/28 12:35:16;;;;;;;3.35;2.38;;;1.20;99.90;;;;;;5069955;28;20032;-59
2021/01/28 12:37:42;;;;;;;3.08;2.40;;;1.20;99.90;;;;;;5068996;28;20027;-56
2021/01/28 12:40:11;;;;;;;3.50;2.40;;;1.30;99.90;;;;;;5070162;28;20112;-57
2021/01/28 12:42:36;;;;;;;4.38;2.55;;;1.30;99.90;;;;;;5069907;28;20024;-58
2021/01/28 12:45:03;;;;;;;6.93;3.00;;;1.30;99.90;;;;;;5069351;28;20502;-58
2021/01/28 12:47:29;;;;;;;3.03;2.28;;;1.30;99.90;;;;;;5069327;28;20086;-58
2021/01/28 12:49:54;;;;;;;4.35;2.60;;;1.30;99.90;;;;;;5069399;28;20557;-58
2021/01/28 12:52:21;;;;;;;6.50;3.15;;;1.40;99.90;;;;;;5068882;28;20526;-58
2021/01/28 12:54:46;;;;;;;8.23;2.67;;;1.40;99.90;;;;;;5069229;28;20051;-60
2021/01/28 12:57:12;;;;;;;3.45;2.60;;;1.40;99.90;;;;;;5068565;28;20546;-57
2021/01/28 12:59:38;;;;;;;4.00;2.00;;;1.30;99.90;;;;;;5069773;28;20363;-58
2021/01/28 13:02:04;;;;;;;2.45;1.77;;;1.30;99.90;;;;;;5067093;28;20445;-57
2021/01/28 13:04:30;;;;;;;2.03;1.70;;;1.20;99.90;;;;;;5064815;28;20025;-59
2021/01/28 13:06:55;;;;;;;5.30;1.52;;;1.20;99.90;;;;;;5068662;28;20024;-57
2021/01/28 13:09:21;;;;;;;3.55;1.52;;;1.20;99.90;;;;;;5068901;28;20025;-55